Terminal Aerodrome Forecast
Issued by NWS Tulsa, OK

Home | Current Version | Previous Version | Text Only | Print | Product List | Glossary On
Versions: 1 2 3 4 5 6 7 8 9 10 11 12 13
000
FTUS44 KTSA 311700
TAFFSM
TAF
KFSM 311721Z 3118/0118 28004KT P6SM SKC
     FM010100 VRB03KT P6SM BKN250
     FM010400 VRB03KT P6SM VCTS BKN050CB
     FM010900 VRB03KT 5SM BR BKN080
      TEMPO 0110/0114 3SM BR BKN025
     FM011400 11010KT P6SM BKN035=

USA.gov is the U.S. government's official web portal to all federal, state and local government web resources and services.